sensor_id;sensor_type;location;lat;lon;timestamp;pressure;altitude;pressure_sealevel;temperature;humidity
6200;BME280;3133;43.214;27.906;2023-05-20T00:00:48;100709.97;;;17.69;100.00
6200;BME280;3133;43.214;27.906;2023-05-20T00:03:15;100651.16;;;17.30;100.00
6200;BME280;3133;43.214;27.906;2023-05-20T00:05:44;100625.09;;;17.18;100.00
6200;BME280;3133;43.214;27.906;2023-05-20T00:08:11;100655.34;;;17.39;100.00
6200;BME280;3133;43.214;27.906;2023-05-20T00:10:38;100626.63;;;17.27;100.00
6200;BME280;3133;43.214;27.906;2023-05-20T00:13:06;100708.28;;;17.67;100.00
6200;BME280;3133;43.214;27.906;2023-05-20T00:15:33;100673.47;;;17.52;100.00
6200;BME280;3133;43.214;27.906;2023-05-20T00:18:01;100707.16;;;17.75;100.00
6200;BME280;3133;43.214;27.906;2023-05-20T00:20:28;100696.09;;;17.61;100.00
6200;BME280;3133;43.214;27.906;2023-05-20T00:22:56;100699.50;;;17.66;100.00
6200;BME280;3133;43.214;27.906;2023-05-20T00:25:23;100703.00;;;17.67;100.00
6200;BME280;3133;43.214;27.906;2023-05-20T00:27:50;100707.34;;;17.68;100.00
6200;BME280;3133;43.214;27.906;2023-05-20T00:30:17;100697.72;;;17.67;100.00
6200;BME280;3133;43.214;27.906;2023-05-20T00:32:44;100711.75;;;17.69;100.00
6200;BME280;3133;43.214;27.906;2023-05-20T00:35:11;100709.97;;;17.69;100.00
6200;BME280;3133;43.214;27.906;2023-05-20T00:37:38;100710.00;;;17.68;100.00
6200;BME280;3133;43.214;27.906;2023-05-20T00:40:07;100672.72;;;17.46;100.00
6200;BME280;3133;43.214;27.906;2023-05-20T00:42:35;100679.81;;;17.44;100.00
6200;BME280;3133;43.214;27.906;2023-05-20T00:45:02;100697.25;;;17.51;100.00
6200;BME280;3133;43.214;27.906;2023-05-20T00:47:30;100697.31;;;17.46;100.00
6200;BME280;3133;43.214;27.906;2023-05-20T00:49:59;100693.97;;;17.40;100.00
6200;BME280;3133;43.214;27.906;2023-05-20T00:52:28;100669.81;;;17.23;100.00
6200;BME280;3133;43.214;27.906;2023-05-20T00:54:57;100698.56;;;17.32;100.00
6200;BME280;3133;43.214;27.906;2023-05-20T00:57:26;100677.75;;;17.21;100.00
6200;BME280;3133;43.214;27.906;2023-05-20T00:59:53;100688.84;;;17.34;100.00
6200;BME280;3133;43.214;27.906;2023-05-20T01:02:20;100649.75;;;17.17;100.00
6200;BME280;3133;43.214;27.906;2023-05-20T01:04:47;100662.72;;;17.26;100.00
6200;BME280;3133;43.214;27.906;2023-05-20T01:07:16;100618.78;;;16.90;100.00
6200;BME280;3133;43.214;27.906;2023-05-20T01:09:44;100665.34;;;17.26;100.00
6200;BME280;3133;43.214;27.906;2023-05-20T01:12:15;100667.94;;;17.28;100.00
6200;BME280;3133;43.214;27.906;2023-05-20T01:14:47;100683.44;;;17.40;100.00
6200;BME280;3133;43.214;27.906;2023-05-20T01:17:15;100693.13;;;17.39;100.00
6200;BME280;3133;43.214;27.906;2023-05-20T01:19:46;100682.66;;;17.36;100.00
6200;BME280;3133;43.214;27.906;2023-05-20T01:22:13;100682.66;;;17.36;100.00
6200;BME280;3133;43.214;27.906;2023-05-20T01:24:43;100675.53;;;17.40;100.00
6200;BME280;3133;43.214;27.906;2023-05-20T01:27:13;100678.09;;;17.43;100.00
6200;BME280;3133;43.214;27.906;2023-05-20T01:29:41;100619.06;;;17.15;100.00
6200;BME280;3133;43.214;27.906;2023-05-20T01:32:12;100667.59;;;17.41;100.00
6200;BME280;3133;43.214;27.906;2023-05-20T01:34:42;100662.16;;;17.46;100.00
6200;BME280;3133;43.214;27.906;2023-05-20T01:37:09;100672.81;;;17.43;100.00
6200;BME280;3133;43.214;27.906;2023-05-20T01:39:38;100673.59;;;17.46;100.00
6200;BME280;3133;43.214;27.906;2023-05-20T01:42:08;100648.31;;;17.38;100.00
6200;BME280;3133;43.214;27.906;2023-05-20T01:44:36;100677.94;;;17.49;100.00
6200;BME280;3133;43.214;27.906;2023-05-20T01:47:03;100680.56;;;17.49;100.00
6200;BME280;3133;43.214;27.906;2023-05-20T01:49:30;100668.47;;;17.40;100.00
6200;BME280;3133;43.214;27.906;2023-05-20T01:51:57;100685.81;;;17.50;100.00
6200;BME280;3133;43.214;27.906;2023-05-20T01:54:24;100677.91;;;17.52;100.00
6200;BME280;3133;43.214;27.906;2023-05-20T01:56:51;100666.66;;;17.42;100.00
6200;BME280;3133;43.214;27.906;2023-05-20T01:59:19;100676.16;;;17.51;100.00
6200;BME280;3133;43.214;27.906;2023-05-20T02:01:46;100685.81;;;17.50;100.00
6200;BME280;3133;43.214;27.906;2023-05-20T02:04:13;100684.88;;;17.53;100.00
6200;BME280;3133;43.214;27.906;2023-05-20T02:06:40;100696.34;;;17.52;100.00
6200;BME280;3133;43.214;27.906;2023-05-20T02:09:06;100655.03;;;17.17;100.00
6200;BME280;3133;43.214;27.906;2023-05-20T02:11:33;100650.47;;;17.22;100.00
6200;BME280;3133;43.214;27.906;2023-05-20T02:14:00;100690.28;;;17.47;100.00
6200;BME280;3133;43.214;27.906;2023-05-20T02:16:28;100652.19;;;17.25;100.00
6200;BME280;3133;43.214;27.906;2023-05-20T02:18:55;100693.09;;;17.41;100.00
6200;BME280;3133;43.214;27.906;2023-05-20T02:21:23;100706.38;;;17.36;100.00
6200;BME280;3133;43.214;27.906;2023-05-20T02:23:50;100684.63;;;17.27;100.00
6200;BME280;3133;43.214;27.906;2023-05-20T02:26:17;100711.66;;;17.36;100.00
6200;BME280;3133;43.214;27.906;2023-05-20T02:28:45;100697.53;;;17.37;100.00
6200;BME280;3133;43.214;27.906;2023-05-20T02:31:15;100704.63;;;17.37;100.00
6200;BME280;3133;43.214;27.906;2023-05-20T02:33:43;100679.56;;;17.19;100.00
6200;BME280;3133;43.214;27.906;2023-05-20T02:36:10;100701.22;;;17.32;100.00
6200;BME280;3133;43.214;27.906;2023-05-20T02:38:36;100700.34;;;17.31;100.00
6200;BME280;3133;43.214;27.906;2023-05-20T02:41:03;100702.03;;;17.34;100.00
6200;BME280;3133;43.214;27.906;2023-05-20T02:43:31;100701.31;;;17.27;100.00
6200;BME280;3133;43.214;27.906;2023-05-20T02:45:58;100707.41;;;17.29;100.00
6200;BME280;3133;43.214;27.906;2023-05-20T02:48:25;100721.63;;;17.24;100.00
6200;BME280;3133;43.214;27.906;2023-05-20T02:50:53;100723.47;;;17.20;100.00
6200;BME280;3133;43.214;27.906;2023-05-20T02:53:20;100704.41;;;17.09;100.00
6200;BME280;3133;43.214;27.906;2023-05-20T02:55:47;100725.09;;;17.26;100.00
6200;BME280;3133;43.214;27.906;2023-05-20T02:58:14;100728.81;;;17.17;100.00
6200;BME280;3133;43.214;27.906;2023-05-20T03:00:41;100731.50;;;17.14;100.00
6200;BME280;3133;43.214;27.906;2023-05-20T03:03:09;100731.75;;;17.04;100.00
6200;BME280;3133;43.214;27.906;2023-05-20T03:05:36;100742.50;;;16.96;100.00
6200;BME280;3133;43.214;27.906;2023-05-20T03:08:07;100738.84;;;17.02;100.00
6200;BME280;3133;43.214;27.906;2023-05-20T03:10:35;100732.69;;;17.03;100.00
6200;BME280;3133;43.214;27.906;2023-05-20T03:13:04;100737.19;;;16.98;100.00
6200;BME280;3133;43.214;27.906;2023-05-20T03:15:33;100701.72;;;16.74;100.00
6200;BME280;3133;43.214;27.906;2023-05-20T03:18:00;100740.50;;;17.06;100.00
6200;BME280;3133;43.214;27.906;2023-05-20T03:20:29;100703.47;;;16.75;100.00
6200;BME280;3133;43.214;27.906;2023-05-20T03:22:57;100745.97;;;16.97;100.00
6200;BME280;3133;43.214;27.906;2023-05-20T03:25:25;100729.31;;;16.95;100.00
6200;BME280;3133;43.214;27.906;2023-05-20T03:27:52;100744.06;;;17.05;100.00
6200;BME280;3133;43.214;27.906;2023-05-20T03:30:20;100736.88;;;17.10;100.00
6200;BME280;3133;43.214;27.906;2023-05-20T03:32:48;100742.88;;;17.18;100.00
6200;BME280;3133;43.214;27.906;2023-05-20T03:35:15;100741.84;;;17.23;100.00
6200;BME280;3133;43.214;27.906;2023-05-20T03:37:42;100743.69;;;17.20;100.00
6200;BME280;3133;43.214;27.906;2023-05-20T03:40:09;100733.31;;;17.12;100.00
6200;BME280;3133;43.214;27.906;2023-05-20T03:42:38;100720.22;;;17.09;100.00
6200;BME280;3133;43.214;27.906;2023-05-20T03:45:06;100753.94;;;17.32;100.00
6200;BME280;3133;43.214;27.906;2023-05-20T03:47:33;100732.34;;;17.16;100.00
6200;BME280;3133;43.214;27.906;2023-05-20T03:50:00;100675.94;;;16.86;100.00
6200;BME280;3133;43.214;27.906;2023-05-20T03:52:26;100725.88;;;17.29;100.00
6200;BME280;3133;43.214;27.906;2023-05-20T03:54:53;100728.59;;;17.26;100.00
6200;BME280;3133;43.214;27.906;2023-05-20T03:57:21;100732.28;;;17.19;100.00
6200;BME280;3133;43.214;27.906;2023-05-20T03:59:49;100729.78;;;17.13;100.00
6200;BME280;3133;43.214;27.906;2023-05-20T04:02:16;100704.78;;;16.93;100.00
6200;BME280;3133;43.214;27.906;2023-05-20T04:04:43;100647.75;;;16.53;100.00
6200;BME280;3133;43.214;27.906;2023-05-20T04:07:10;100724.84;;;17.00;100.00
6200;BME280;3133;43.214;27.906;2023-05-20T04:09:37;100727.41;;;17.03;100.00
6200;BME280;3133;43.214;27.906;2023-05-20T04:12:04;100684.25;;;16.70;100.00
6200;BME280;3133;43.214;27.906;2023-05-20T04:14:32;100705.38;;;16.68;100.00
6200;BME280;3133;43.214;27.906;2023-05-20T04:17:02;100703.81;;;16.58;100.00
6200;BME280;3133;43.214;27.906;2023-05-20T04:19:30;100717.78;;;16.62;100.00
6200;BME280;3133;43.214;27.906;2023-05-20T04:21:57;100694.41;;;16.45;100.00
6200;BME280;3133;43.214;27.906;2023-05-20T04:24:24;100676.94;;;16.41;100.00
6200;BME280;3133;43.214;27.906;2023-05-20T04:26:52;100704.63;;;16.60;100.00
6200;BME280;3133;43.214;27.906;2023-05-20T04:29:19;100699.34;;;16.62;100.00
6200;BME280;3133;43.214;27.906;2023-05-20T04:31:47;100597.94;;;16.03;100.00
6200;BME280;3133;43.214;27.906;2023-05-20T04:34:16;100676.06;;;16.41;100.00
6200;BME280;3133;43.214;27.906;2023-05-20T04:36:44;100666.72;;;16.26;100.00
6200;BME280;3133;43.214;27.906;2023-05-20T04:39:11;100669.28;;;16.31;100.00
6200;BME280;3133;43.214;27.906;2023-05-20T04:41:39;100684.78;;;16.44;100.00
6200;BME280;3133;43.214;27.906;2023-05-20T04:44:06;100685.84;;;16.36;100.00
6200;BME280;3133;43.214;27.906;2023-05-20T04:46:33;100687.56;;;16.37;100.00
6200;BME280;3133;43.214;27.906;2023-05-20T04:49:00;100680.69;;;16.31;100.00
6200;BME280;3133;43.214;27.906;2023-05-20T04:51:30;100593.16;;;15.80;100.00
6200;BME280;3133;43.214;27.906;2023-05-20T04:53:56;100690.28;;;16.34;100.00
6200;BME280;3133;43.214;27.906;2023-05-20T04:56:24;100688.44;;;16.37;100.00
6200;BME280;3133;43.214;27.906;2023-05-20T04:58:51;100677.97;;;16.34;100.00
6200;BME280;3133;43.214;27.906;2023-05-20T05:01:18;100673.59;;;16.33;100.00
6200;BME280;3133;43.214;27.906;2023-05-20T05:03:45;100679.94;;;16.25;100.00
6200;BME280;3133;43.214;27.906;2023-05-20T05:06:12;100668.47;;;16.27;100.00
6200;BME280;3133;43.214;27.906;2023-05-20T05:08:40;100665.84;;;16.26;100.00
6200;BME280;3133;43.214;27.906;2023-05-20T05:11:07;100665.16;;;16.19;100.00
6200;BME280;3133;43.214;27.906;2023-05-20T05:13:34;100605.53;;;15.75;100.00
6200;BME280;3133;43.214;27.906;2023-05-20T05:16:01;100662.59;;;16.15;100.00
6200;BME280;3133;43.214;27.906;2023-05-20T05:18:28;100666.03;;;16.18;100.00
6200;BME280;3133;43.214;27.906;2023-05-20T05:20:59;100661.56;;;16.23;100.00
6200;BME280;3133;43.214;27.906;2023-05-20T05:23:26;100665.81;;;16.29;100.00
6200;BME280;3133;43.214;27.906;2023-05-20T05:25:54;100669.97;;;16.39;100.00
6200;BME280;3133;43.214;27.906;2023-05-20T05:28:21;100682.06;;;16.49;100.00
6200;BME280;3133;43.214;27.906;2023-05-20T05:30:49;100648.03;;;16.40;100.00
6200;BME280;3133;43.214;27.906;2023-05-20T05:33:16;100576.84;;;16.06;100.00
6200;BME280;3133;43.214;27.906;2023-05-20T05:35:43;100606.94;;;16.33;100.00
6200;BME280;3133;43.214;27.906;2023-05-20T05:38:10;100629.44;;;16.46;100.00
6200;BME280;3133;43.214;27.906;2023-05-20T05:40:37;100684.16;;;16.73;100.00
6200;BME280;3133;43.214;27.906;2023-05-20T05:43:05;100593.13;;;16.22;100.00
6200;BME280;3133;43.214;27.906;2023-05-20T05:45:32;100686.53;;;16.85;100.00
6200;BME280;3133;43.214;27.906;2023-05-20T05:47:59;100650.06;;;16.68;100.00
6200;BME280;3133;43.214;27.906;2023-05-20T05:50:26;100696.06;;;16.91;100.00
6200;BME280;3133;43.214;27.906;2023-05-20T05:52:53;100695.91;;;16.98;100.00
6200;BME280;3133;43.214;27.906;2023-05-20T05:55:20;100702.72;;;17.07;100.00
6200;BME280;3133;43.214;27.906;2023-05-20T05:57:48;100714.00;;;17.12;100.00
6200;BME280;3133;43.214;27.906;2023-05-20T06:00:17;100705.31;;;17.08;100.00
6200;BME280;3133;43.214;27.906;2023-05-20T06:02:44;100657.34;;;16.94;100.00
6200;BME280;3133;43.214;27.906;2023-05-20T06:05:11;100710.16;;;17.26;100.00
6200;BME280;3133;43.214;27.906;2023-05-20T06:07:38;100703.25;;;17.21;100.00
6200;BME280;3133;43.214;27.906;2023-05-20T06:10:05;100671.91;;;17.09;100.00
6200;BME280;3133;43.214;27.906;2023-05-20T06:12:32;100692.66;;;17.22;100.00
6200;BME280;3133;43.214;27.906;2023-05-20T06:14:59;100695.16;;;17.28;100.00
6200;BME280;3133;43.214;27.906;2023-05-20T06:17:27;100700.38;;;17.30;100.00
6200;BME280;3133;43.214;27.906;2023-05-20T06:19:54;100704.78;;;17.29;100.00
6200;BME280;3133;43.214;27.906;2023-05-20T06:22:21;100704.69;;;17.34;100.00
6200;BME280;3133;43.214;27.906;2023-05-20T06:24:48;100653.28;;;17.16;100.00
6200;BME280;3133;43.214;27.906;2023-05-20T06:27:15;100696.34;;;17.52;100.00
6200;BME280;3133;43.214;27.906;2023-05-20T06:29:42;100699.06;;;17.47;100.00
6200;BME280;3133;43.214;27.906;2023-05-20T06:32:08;100687.47;;;17.54;100.00
6200;BME280;3133;43.214;27.906;2023-05-20T06:34:37;100668.25;;;17.51;100.00
6200;BME280;3133;43.214;27.906;2023-05-20T06:37:04;100685.28;;;17.72;100.00
6200;BME280;3133;43.214;27.906;2023-05-20T06:39:31;100697.38;;;17.79;100.00
6200;BME280;3133;43.214;27.906;2023-05-20T06:41:59;100690.00;;;17.93;100.00
6200;BME280;3133;43.214;27.906;2023-05-20T06:44:26;100700.25;;;18.02;100.00
6200;BME280;3133;43.214;27.906;2023-05-20T06:46:54;100700.94;;;18.10;100.00
6200;BME280;3133;43.214;27.906;2023-05-20T06:49:21;100701.75;;;18.12;100.00
6200;BME280;3133;43.214;27.906;2023-05-20T06:51:50;100701.34;;;18.27;100.00
6200;BME280;3133;43.214;27.906;2023-05-20T06:54:17;100675.56;;;18.35;100.00
6200;BME280;3133;43.214;27.906;2023-05-20T06:56:44;100682.34;;;18.44;100.00
6200;BME280;3133;43.214;27.906;2023-05-20T06:59:11;100717.78;;;18.67;100.00
6200;BME280;3133;43.214;27.906;2023-05-20T07:01:38;100688.72;;;18.67;100.00
6200;BME280;3133;43.214;27.906;2023-05-20T07:04:05;100700.91;;;18.71;100.00
6200;BME280;3133;43.214;27.906;2023-05-20T07:06:31;100718.88;;;18.88;100.00
6200;BME280;3133;43.214;27.906;2023-05-20T07:09:00;100701.66;;;18.76;100.00
6200;BME280;3133;43.214;27.906;2023-05-20T07:11:27;100700.59;;;18.82;100.00
6200;BME280;3133;43.214;27.906;2023-05-20T07:13:53;100699.72;;;18.81;100.00
6200;BME280;3133;43.214;27.906;2023-05-20T07:16:20;100693.66;;;18.78;100.00
6200;BME280;3133;43.214;27.906;2023-05-20T07:18:47;100709.94;;;18.93;100.00
6200;BME280;3133;43.214;27.906;2023-05-20T07:21:14;100647.81;;;18.51;100.00
6200;BME280;3133;43.214;27.906;2023-05-20T07:23:41;100698.88;;;18.81;100.00
6200;BME280;3133;43.214;27.906;2023-05-20T07:26:09;100751.47;;;18.88;100.00
6200;BME280;3133;43.214;27.906;2023-05-20T07:28:38;100743.56;;;18.88;100.00
6200;BME280;3133;43.214;27.906;2023-05-20T07:31:05;100732.41;;;18.79;100.00
6200;BME280;3133;43.214;27.906;2023-05-20T07:33:32;100730.66;;;18.78;100.00
6200;BME280;3133;43.214;27.906;2023-05-20T07:35:59;100754.53;;;18.75;100.00
6200;BME280;3133;43.214;27.906;2023-05-20T07:38:26;100742.19;;;18.75;100.00
6200;BME280;3133;43.214;27.906;2023-05-20T07:40:53;100745.88;;;18.70;100.00
6200;BME280;3133;43.214;27.906;2023-05-20T07:43:21;100714.94;;;18.44;100.00
6200;BME280;3133;43.214;27.906;2023-05-20T07:45:48;100735.63;;;18.59;100.00
6200;BME280;3133;43.214;27.906;2023-05-20T07:48:15;100752.25;;;18.63;100.00
6200;BME280;3133;43.214;27.906;2023-05-20T07:50:41;100718.50;;;18.42;100.00
6200;BME280;3133;43.214;27.906;2023-05-20T07:53:08;100742.34;;;18.40;100.00
6200;BME280;3133;43.214;27.906;2023-05-20T07:55:35;100658.34;;;17.91;100.00
6200;BME280;3133;43.214;27.906;2023-05-20T07:58:02;100725.88;;;18.30;100.00
6200;BME280;3133;43.214;27.906;2023-05-20T08:00:30;100759.84;;;18.42;100.00
6200;BME280;3133;43.214;27.906;2023-05-20T08:02:57;100714.38;;;18.01;100.00
6200;BME280;3133;43.214;27.906;2023-05-20T08:05:24;100763.75;;;18.29;100.00
6200;BME280;3133;43.214;27.906;2023-05-20T08:07:51;100752.91;;;18.08;100.00
6200;BME280;3133;43.214;27.906;2023-05-20T08:10:18;100762.66;;;18.06;100.00
6200;BME280;3133;43.214;27.906;2023-05-20T08:12:45;100730.09;;;17.73;100.00
6200;BME280;3133;43.214;27.906;2023-05-20T08:15:13;100763.34;;;17.79;100.00
6200;BME280;3133;43.214;27.906;2023-05-20T08:17:41;100734.72;;;17.63;100.00
6200;BME280;3133;43.214;27.906;2023-05-20T08:20:09;100664.72;;;17.15;100.00
6200;BME280;3133;43.214;27.906;2023-05-20T08:22:37;100765.25;;;17.74;100.00
6200;BME280;3133;43.214;27.906;2023-05-20T08:25:08;100739.47;;;17.49;100.00
6200;BME280;3133;43.214;27.906;2023-05-20T08:27:35;100775.16;;;17.64;100.00
6200;BME280;3133;43.214;27.906;2023-05-20T08:30:04;100769.72;;;17.70;100.00
6200;BME280;3133;43.214;27.906;2023-05-20T08:32:34;100733.38;;;17.46;100.00
6200;BME280;3133;43.214;27.906;2023-05-20T08:35:03;100759.28;;;17.66;100.00
6200;BME280;3133;43.214;27.906;2023-05-20T08:37:30;100751.31;;;17.69;100.00
6200;BME280;3133;43.214;27.906;2023-05-20T08:39:56;100735.47;;;17.69;100.00
6200;BME280;3133;43.214;27.906;2023-05-20T08:42:24;100748.84;;;17.61;100.00
6200;BME280;3133;43.214;27.906;2023-05-20T08:44:51;100691.53;;;17.32;100.00
6200;BME280;3133;43.214;27.906;2023-05-20T08:47:19;100720.53;;;17.32;100.00
6200;BME280;3133;43.214;27.906;2023-05-20T08:49:47;100744.78;;;17.46;100.00
6200;BME280;3133;43.214;27.906;2023-05-20T08:52:17;100690.56;;;17.00;100.00
6200;BME280;3133;43.214;27.906;2023-05-20T08:54:48;100750.25;;;17.39;100.00
6200;BME280;3133;43.214;27.906;2023-05-20T08:57:16;100752.84;;;17.40;100.00
6200;BME280;3133;43.214;27.906;2023-05-20T08:59:45;100675.56;;;17.03;100.00
6200;BME280;3133;43.214;27.906;2023-05-20T09:02:12;100745.59;;;17.51;100.00
6200;BME280;3133;43.214;27.906;2023-05-20T09:04:39;100749.66;;;17.63;100.00
6200;BME280;3133;43.214;27.906;2023-05-20T09:07:06;100740.59;;;17.75;100.00
6200;BME280;3133;43.214;27.906;2023-05-20T09:09:35;100743.81;;;17.86;100.00
6200;BME280;3133;43.214;27.906;2023-05-20T09:12:02;100692.22;;;17.76;100.00
6200;BME280;3133;43.214;27.906;2023-05-20T09:14:30;100633.91;;;17.52;100.00
6200;BME280;3133;43.214;27.906;2023-05-20T09:16:57;100746.03;;;18.33;100.00
6200;BME280;3133;43.214;27.906;2023-05-20T09:19:25;100736.97;;;18.45;100.00
6200;BME280;3133;43.214;27.906;2023-05-20T09:21:54;100720.06;;;18.50;100.00
6200;BME280;3133;43.214;27.906;2023-05-20T09:24:24;100742.09;;;18.78;100.00
6200;BME280;3133;43.214;27.906;2023-05-20T09:26:52;100739.72;;;18.98;100.00
6200;BME280;3133;43.214;27.906;2023-05-20T09:29:20;100735.78;;;19.11;100.00
6200;BME280;3133;43.214;27.906;2023-05-20T09:31:47;100735.19;;;19.30;100.00
6200;BME280;3133;43.214;27.906;2023-05-20T09:34:15;100721.75;;;19.37;100.00
6200;BME280;3133;43.214;27.906;2023-05-20T09:36:44;100743.03;;;19.60;100.00
6200;BME280;3133;43.214;27.906;2023-05-20T09:39:15;100744.09;;;19.55;100.00
6200;BME280;3133;43.214;27.906;2023-05-20T09:41:48;100698.97;;;19.32;100.00
6200;BME280;3133;43.214;27.906;2023-05-20T09:44:20;100735.63;;;19.70;100.00
6200;BME280;3133;43.214;27.906;2023-05-20T09:46:48;100688.31;;;19.61;100.00
6200;BME280;3133;43.214;27.906;2023-05-20T09:49:18;100643.69;;;19.50;100.00
6200;BME280;3133;43.214;27.906;2023-05-20T09:51:47;100732.59;;;20.07;100.00
6200;BME280;3133;43.214;27.906;2023-05-20T09:54:17;100657.00;;;19.49;100.00
6200;BME280;3133;43.214;27.906;2023-05-20T09:56:45;100722.47;;;19.93;100.00
6200;BME280;3133;43.214;27.906;2023-05-20T09:59:14;100639.59;;;19.42;100.00
6200;BME280;3133;43.214;27.906;2023-05-20T10:01:43;100708.81;;;20.05;100.00
6200;BME280;3133;43.214;27.906;2023-05-20T10:04:12;100702.09;;;20.20;100.00
6200;BME280;3133;43.214;27.906;2023-05-20T10:06:59;100679.22;;;20.17;100.00
6200;BME280;3133;43.214;27.906;2023-05-20T10:09:44;100704.53;;;20.50;100.00
6200;BME280;3133;43.214;27.906;2023-05-20T10:12:23;100667.19;;;20.33;100.00
6200;BME280;3133;43.214;27.906;2023-05-20T10:14:59;100705.41;;;20.73;100.00
6200;BME280;3133;43.214;27.906;2023-05-20T10:17:38;100706.31;;;20.95;100.00
6200;BME280;3133;43.214;27.906;2023-05-20T10:20:06;100703.84;;;20.90;100.00
6200;BME280;3133;43.214;27.906;2023-05-20T10:22:36;100688.44;;;21.00;100.00
6200;BME280;3133;43.214;27.906;2023-05-20T10:25:04;100683.63;;;21.31;100.00
6200;BME280;3133;43.214;27.906;2023-05-20T10:27:42;100613.84;;;21.29;100.00
6200;BME280;3133;43.214;27.906;2023-05-20T10:30:15;100678.16;;;21.76;100.00
6200;BME280;3133;43.214;27.906;2023-05-20T10:32:52;100549.16;;;20.90;100.00
6200;BME280;3133;43.214;27.906;2023-05-20T10:35:21;100664.63;;;21.62;100.00
6200;BME280;3133;43.214;27.906;2023-05-20T10:37:51;100558.97;;;20.88;100.00
6200;BME280;3133;43.214;27.906;2023-05-20T10:40:20;100657.88;;;21.75;100.00
6200;BME280;3133;43.214;27.906;2023-05-20T10:42:47;100662.84;;;21.82;100.00
6200;BME280;3133;43.214;27.906;2023-05-20T10:45:24;100662.16;;;22.18;100.00
6200;BME280;3133;43.214;27.906;2023-05-20T10:47:57;100632.38;;;22.30;100.00
6200;BME280;3133;43.214;27.906;2023-05-20T10:50:28;100576.19;;;22.00;100.00
6200;BME280;3133;43.214;27.906;2023-05-20T10:53:03;100604.69;;;22.34;100.00
6200;BME280;3133;43.214;27.906;2023-05-20T10:55:45;100541.44;;;22.04;100.00
6200;BME280;3133;43.214;27.906;2023-05-20T10:58:13;100658.22;;;22.65;100.00
6200;BME280;3133;43.214;27.906;2023-05-20T11:00:42;100649.97;;;22.88;100.00
6200;BME280;3133;43.214;27.906;2023-05-20T11:03:12;100550.81;;;22.49;100.00
6200;BME280;3133;43.214;27.906;2023-05-20T11:05:40;100655.28;;;23.42;100.00
6200;BME280;3133;43.214;27.906;2023-05-20T11:08:08;100658.41;;;23.50;100.00
6200;BME280;3133;43.214;27.906;2023-05-20T11:10:35;100605.66;;;23.06;100.00
6200;BME280;3133;43.214;27.906;2023-05-20T11:13:03;100663.41;;;23.56;100.00
6200;BME280;3133;43.214;27.906;2023-05-20T11:15:31;100654.09;;;23.65;100.00
6200;BME280;3133;43.214;27.906;2023-05-20T11:18:01;100613.69;;;23.57;100.00
6200;BME280;3133;43.214;27.906;2023-05-20T11:20:30;100641.28;;;23.89;100.00
6200;BME280;3133;43.214;27.906;2023-05-20T11:23:00;100582.75;;;23.87;100.00
6200;BME280;3133;43.214;27.906;2023-05-20T11:25:28;100612.16;;;24.18;100.00
6200;BME280;3133;43.214;27.906;2023-05-20T11:27:56;100652.13;;;24.51;100.00
6200;BME280;3133;43.214;27.906;2023-05-20T11:30:23;100658.81;;;24.43;100.00
6200;BME280;3133;43.214;27.906;2023-05-20T11:32:58;100642.78;;;24.27;100.00
6200;BME280;3133;43.214;27.906;2023-05-20T11:35:26;100637.84;;;23.87;100.00
6200;BME280;3133;43.214;27.906;2023-05-20T11:38:01;100639.88;;;23.82;100.00
6200;BME280;3133;43.214;27.906;2023-05-20T11:40:29;100638.44;;;23.59;100.00
6200;BME280;3133;43.214;27.906;2023-05-20T11:42:58;100640.63;;;23.68;100.00
6200;BME280;3133;43.214;27.906;2023-05-20T11:45:26;100643.88;;;23.90;100.00
6200;BME280;3133;43.214;27.906;2023-05-20T11:48:01;100560.97;;;23.46;100.00
6200;BME280;3133;43.214;27.906;2023-05-20T11:50:32;100556.91;;;23.39;100.00
6200;BME280;3133;43.214;27.906;2023-05-20T11:53:02;100645.78;;;23.71;100.00
6200;BME280;3133;43.214;27.906;2023-05-20T11:55:31;100610.91;;;23.24;100.00
6200;BME280;3133;43.214;27.906;2023-05-20T11:58:00;100541.59;;;22.74;100.00
6200;BME280;3133;43.214;27.906;2023-05-20T12:00:29;100566.31;;;22.58;100.00
6200;BME280;3133;43.214;27.906;2023-05-20T12:02:56;100613.91;;;22.64;100.00
6200;BME280;3133;43.214;27.906;2023-05-20T12:05:23;100564.06;;;22.50;100.00
6200;BME280;3133;43.214;27.906;2023-05-20T12:07:50;100591.19;;;22.75;100.00
6200;BME280;3133;43.214;27.906;2023-05-20T12:10:23;100629.81;;;22.65;100.00
6200;BME280;3133;43.214;27.906;2023-05-20T12:12:53;100571.75;;;22.00;100.00
6200;BME280;3133;43.214;27.906;2023-05-20T12:15:28;100615.06;;;22.40;100.00
6200;BME280;3133;43.214;27.906;2023-05-20T12:17:58;100618.56;;;22.40;100.00
6200;BME280;3133;43.214;27.906;2023-05-20T12:20:27;100559.75;;;22.48;100.00
6200;BME280;3133;43.214;27.906;2023-05-20T12:22:57;100611.03;;;22.87;100.00
6200;BME280;3133;43.214;27.906;2023-05-20T12:25:30;100612.03;;;22.84;100.00
6200;BME280;3133;43.214;27.906;2023-05-20T12:27:58;100474.78;;;22.28;100.00
6200;BME280;3133;43.214;27.906;2023-05-20T12:30:25;100607.84;;;22.79;100.00
6200;BME280;3133;43.214;27.906;2023-05-20T12:32:52;100520.28;;;22.03;100.00
6200;BME280;3133;43.214;27.906;2023-05-20T12:35:25;100594.22;;;22.49;100.00
6200;BME280;3133;43.214;27.906;2023-05-20T12:37:53;100504.84;;;21.72;100.00
6200;BME280;3133;43.214;27.906;2023-05-20T12:40:20;100597.03;;;22.28;100.00
6200;BME280;3133;43.214;27.906;2023-05-20T12:42:49;100552.34;;;22.17;100.00
6200;BME280;3133;43.214;27.906;2023-05-20T12:45:16;100575.25;;;22.38;100.00
6200;BME280;3133;43.214;27.906;2023-05-20T12:47:43;100598.53;;;22.70;100.00
6200;BME280;3133;43.214;27.906;2023-05-20T12:50:11;100571.59;;;22.59;100.00
6200;BME280;3133;43.214;27.906;2023-05-20T12:52:47;100544.16;;;22.22;100.00
6200;BME280;3133;43.214;27.906;2023-05-20T12:55:32;100584.75;;;22.44;100.00